sensor_id;sensor_type;location;lat;lon;timestamp;temperature;humidity
15357;DHT22;7778;48.792;9.260;2023-02-18T00:01:49;12.30;99.90
15357;DHT22;7778;48.792;9.260;2023-02-18T00:04:36;12.20;99.90
15357;DHT22;7778;48.792;9.260;2023-02-18T00:07:23;12.20;99.90
15357;DHT22;7778;48.792;9.260;2023-02-18T00:10:11;12.20;99.90
15357;DHT22;7778;48.792;9.260;2023-02-18T00:12:57;12.20;99.90
15357;DHT22;7778;48.792;9.260;2023-02-18T00:15:45;12.20;99.90
15357;DHT22;7778;48.792;9.260;2023-02-18T00:18:31;12.20;99.90
15357;DHT22;7778;48.792;9.260;2023-02-18T00:21:17;12.20;99.90
15357;DHT22;7778;48.792;9.260;2023-02-18T00:24:03;12.20;99.90
15357;DHT22;7778;48.792;9.260;2023-02-18T00:26:50;12.10;99.90
15357;DHT22;7778;48.792;9.260;2023-02-18T00:29:36;12.10;99.90
15357;DHT22;7778;48.792;9.260;2023-02-18T00:32:22;12.20;99.90
15357;DHT22;7778;48.792;9.260;2023-02-18T00:35:08;12.20;99.90
15357;DHT22;7778;48.792;9.260;2023-02-18T00:37:55;12.20;99.90
15357;DHT22;7778;48.792;9.260;2023-02-18T00:40:40;12.20;99.90
15357;DHT22;7778;48.792;9.260;2023-02-18T00:43:27;12.30;99.90
15357;DHT22;7778;48.792;9.260;2023-02-18T00:46:13;12.10;99.90
15357;DHT22;7778;48.792;9.260;2023-02-18T00:48:58;12.20;99.90
15357;DHT22;7778;48.792;9.260;2023-02-18T00:51:44;12.10;99.90
15357;DHT22;7778;48.792;9.260;2023-02-18T00:54:31;12.10;99.90
15357;DHT22;7778;48.792;9.260;2023-02-18T00:57:16;12.10;99.90
15357;DHT22;7778;48.792;9.260;2023-02-18T01:00:03;12.10;99.90
15357;DHT22;7778;48.792;9.260;2023-02-18T01:02:50;12.10;99.90
15357;DHT22;7778;48.792;9.260;2023-02-18T01:05:37;12.10;99.90
15357;DHT22;7778;48.792;9.260;2023-02-18T01:08:24;12.00;99.90
15357;DHT22;7778;48.792;9.260;2023-02-18T01:11:11;12.00;99.90
15357;DHT22;7778;48.792;9.260;2023-02-18T01:13:57;12.00;99.90
15357;DHT22;7778;48.792;9.260;2023-02-18T01:16:43;12.00;99.90
15357;DHT22;7778;48.792;9.260;2023-02-18T01:19:28;12.10;99.90
15357;DHT22;7778;48.792;9.260;2023-02-18T01:22:14;12.00;99.90
15357;DHT22;7778;48.792;9.260;2023-02-18T01:25:00;12.00;99.90
15357;DHT22;7778;48.792;9.260;2023-02-18T01:27:47;12.00;99.90
15357;DHT22;7778;48.792;9.260;2023-02-18T01:30:32;12.00;99.90
15357;DHT22;7778;48.792;9.260;2023-02-18T01:33:19;12.00;99.90
15357;DHT22;7778;48.792;9.260;2023-02-18T01:36:05;12.00;99.90
15357;DHT22;7778;48.792;9.260;2023-02-18T01:38:52;12.10;99.90
15357;DHT22;7778;48.792;9.260;2023-02-18T01:41:37;12.10;99.90
15357;DHT22;7778;48.792;9.260;2023-02-18T01:44:26;12.10;99.90
15357;DHT22;7778;48.792;9.260;2023-02-18T01:47:13;12.10;99.90
15357;DHT22;7778;48.792;9.260;2023-02-18T01:49:59;12.10;99.90
15357;DHT22;7778;48.792;9.260;2023-02-18T01:52:44;12.10;99.90
15357;DHT22;7778;48.792;9.260;2023-02-18T01:55:30;12.10;99.90
15357;DHT22;7778;48.792;9.260;2023-02-18T01:58:16;12.10;99.90
15357;DHT22;7778;48.792;9.260;2023-02-18T02:01:04;12.10;99.90
15357;DHT22;7778;48.792;9.260;2023-02-18T02:03:50;12.00;99.90
15357;DHT22;7778;48.792;9.260;2023-02-18T02:06:35;12.10;99.90
15357;DHT22;7778;48.792;9.260;2023-02-18T02:09:23;12.00;99.90
15357;DHT22;7778;48.792;9.260;2023-02-18T02:12:32;12.10;99.90
15357;DHT22;7778;48.792;9.260;2023-02-18T02:15:33;12.10;99.90
15357;DHT22;7778;48.792;9.260;2023-02-18T02:18:37;11.90;99.90
15357;DHT22;7778;48.792;9.260;2023-02-18T02:25:27;12.10;99.90
15357;DHT22;7778;48.792;9.260;2023-02-18T02:32:27;12.10;99.90
15357;DHT22;7778;48.792;9.260;2023-02-18T02:35:41;12.00;99.90
15357;DHT22;7778;48.792;9.260;2023-02-18T02:38:31;12.00;99.90
15357;DHT22;7778;48.792;9.260;2023-02-18T02:41:31;11.90;99.90
15357;DHT22;7778;48.792;9.260;2023-02-18T02:44:27;12.00;99.90
15357;DHT22;7778;48.792;9.260;2023-02-18T02:47:19;11.90;99.90
15357;DHT22;7778;48.792;9.260;2023-02-18T02:50:13;12.00;99.90
15357;DHT22;7778;48.792;9.260;2023-02-18T02:53:10;12.00;99.90
15357;DHT22;7778;48.792;9.260;2023-02-18T02:55:58;12.00;99.90
15357;DHT22;7778;48.792;9.260;2023-02-18T02:58:46;11.90;99.90
15357;DHT22;7778;48.792;9.260;2023-02-18T03:01:46;11.90;99.90
15357;DHT22;7778;48.792;9.260;2023-02-18T03:05:04;12.00;99.90
15357;DHT22;7778;48.792;9.260;2023-02-18T03:08:25;11.90;99.90
15357;DHT22;7778;48.792;9.260;2023-02-18T03:11:17;12.00;99.90
15357;DHT22;7778;48.792;9.260;2023-02-18T03:14:08;12.00;99.90
15357;DHT22;7778;48.792;9.260;2023-02-18T03:17:00;11.90;99.90
15357;DHT22;7778;48.792;9.260;2023-02-18T03:19:53;11.90;99.90
15357;DHT22;7778;48.792;9.260;2023-02-18T03:22:45;11.90;99.90
15357;DHT22;7778;48.792;9.260;2023-02-18T03:25:35;11.80;99.90
15357;DHT22;7778;48.792;9.260;2023-02-18T03:28:23;11.80;99.90
15357;DHT22;7778;48.792;9.260;2023-02-18T03:31:13;11.80;99.90
15357;DHT22;7778;48.792;9.260;2023-02-18T03:34:04;11.80;99.90
15357;DHT22;7778;48.792;9.260;2023-02-18T03:36:52;11.70;99.90
15357;DHT22;7778;48.792;9.260;2023-02-18T03:39:41;11.60;99.90
15357;DHT22;7778;48.792;9.260;2023-02-18T03:42:30;11.60;99.90
15357;DHT22;7778;48.792;9.260;2023-02-18T03:45:16;11.60;99.90
15357;DHT22;7778;48.792;9.260;2023-02-18T03:48:02;11.60;99.90
15357;DHT22;7778;48.792;9.260;2023-02-18T03:50:49;11.60;99.90
15357;DHT22;7778;48.792;9.260;2023-02-18T03:53:34;11.60;99.90
15357;DHT22;7778;48.792;9.260;2023-02-18T03:56:20;11.50;99.90
15357;DHT22;7778;48.792;9.260;2023-02-18T03:59:08;11.40;99.90
15357;DHT22;7778;48.792;9.260;2023-02-18T04:01:53;11.30;99.90
15357;DHT22;7778;48.792;9.260;2023-02-18T04:04:39;11.30;99.90
15357;DHT22;7778;48.792;9.260;2023-02-18T04:07:25;11.20;99.90
15357;DHT22;7778;48.792;9.260;2023-02-18T04:10:11;11.10;99.90
15357;DHT22;7778;48.792;9.260;2023-02-18T04:12:56;11.00;99.90
15357;DHT22;7778;48.792;9.260;2023-02-18T04:15:44;11.20;99.90
15357;DHT22;7778;48.792;9.260;2023-02-18T04:18:30;11.20;99.90
15357;DHT22;7778;48.792;9.260;2023-02-18T04:21:15;11.20;99.90
15357;DHT22;7778;48.792;9.260;2023-02-18T04:24:01;11.20;99.90
15357;DHT22;7778;48.792;9.260;2023-02-18T04:26:47;11.30;99.90
15357;DHT22;7778;48.792;9.260;2023-02-18T04:29:33;11.20;99.90
15357;DHT22;7778;48.792;9.260;2023-02-18T04:32:20;11.20;99.90
15357;DHT22;7778;48.792;9.260;2023-02-18T04:35:06;11.20;99.90
15357;DHT22;7778;48.792;9.260;2023-02-18T04:37:52;11.20;99.90
15357;DHT22;7778;48.792;9.260;2023-02-18T04:40:37;11.20;99.90
15357;DHT22;7778;48.792;9.260;2023-02-18T04:43:23;11.10;99.90
15357;DHT22;7778;48.792;9.260;2023-02-18T04:46:08;11.10;99.90
15357;DHT22;7778;48.792;9.260;2023-02-18T04:48:55;11.10;99.90
15357;DHT22;7778;48.792;9.260;2023-02-18T04:51:41;11.00;99.90
15357;DHT22;7778;48.792;9.260;2023-02-18T04:54:26;10.90;99.90
15357;DHT22;7778;48.792;9.260;2023-02-18T04:57:12;10.90;99.90
15357;DHT22;7778;48.792;9.260;2023-02-18T04:59:57;10.90;99.90
15357;DHT22;7778;48.792;9.260;2023-02-18T05:02:44;10.80;99.90
15357;DHT22;7778;48.792;9.260;2023-02-18T05:05:31;10.80;99.90
15357;DHT22;7778;48.792;9.260;2023-02-18T05:08:17;10.70;99.90
15357;DHT22;7778;48.792;9.260;2023-02-18T05:11:05;10.70;99.90
15357;DHT22;7778;48.792;9.260;2023-02-18T05:13:51;10.70;99.90
15357;DHT22;7778;48.792;9.260;2023-02-18T05:16:37;10.60;99.90
15357;DHT22;7778;48.792;9.260;2023-02-18T05:19:22;10.80;99.90
15357;DHT22;7778;48.792;9.260;2023-02-18T05:22:09;10.50;99.90
15357;DHT22;7778;48.792;9.260;2023-02-18T05:24:55;10.60;99.90
15357;DHT22;7778;48.792;9.260;2023-02-18T05:27:40;10.60;99.90
15357;DHT22;7778;48.792;9.260;2023-02-18T05:30:26;10.60;99.90
15357;DHT22;7778;48.792;9.260;2023-02-18T05:33:11;10.60;99.90
15357;DHT22;7778;48.792;9.260;2023-02-18T05:35:57;10.60;99.90
15357;DHT22;7778;48.792;9.260;2023-02-18T05:38:44;10.60;99.90
15357;DHT22;7778;48.792;9.260;2023-02-18T05:41:30;10.50;99.90
15357;DHT22;7778;48.792;9.260;2023-02-18T05:44:15;10.50;99.90
15357;DHT22;7778;48.792;9.260;2023-02-18T05:47:16;10.50;99.90
15357;DHT22;7778;48.792;9.260;2023-02-18T05:50:02;10.50;99.90
15357;DHT22;7778;48.792;9.260;2023-02-18T05:52:48;10.50;99.90
15357;DHT22;7778;48.792;9.260;2023-02-18T05:55:35;10.60;99.90
15357;DHT22;7778;48.792;9.260;2023-02-18T05:58:22;10.40;99.90
15357;DHT22;7778;48.792;9.260;2023-02-18T06:01:07;10.40;99.90
15357;DHT22;7778;48.792;9.260;2023-02-18T06:03:53;10.50;99.90
15357;DHT22;7778;48.792;9.260;2023-02-18T06:06:39;10.50;99.90
15357;DHT22;7778;48.792;9.260;2023-02-18T06:09:25;10.50;99.90
15357;DHT22;7778;48.792;9.260;2023-02-18T06:12:12;10.50;99.90
15357;DHT22;7778;48.792;9.260;2023-02-18T06:14:57;10.60;99.90
15357;DHT22;7778;48.792;9.260;2023-02-18T06:17:43;10.60;99.90
15357;DHT22;7778;48.792;9.260;2023-02-18T06:20:29;10.60;99.90
15357;DHT22;7778;48.792;9.260;2023-02-18T06:23:15;10.60;99.90
15357;DHT22;7778;48.792;9.260;2023-02-18T06:26:00;10.60;99.90
15357;DHT22;7778;48.792;9.260;2023-02-18T06:28:47;10.70;99.90
15357;DHT22;7778;48.792;9.260;2023-02-18T06:31:33;10.60;99.90
15357;DHT22;7778;48.792;9.260;2023-02-18T06:34:18;10.60;99.90
15357;DHT22;7778;48.792;9.260;2023-02-18T06:37:04;10.60;99.90
15357;DHT22;7778;48.792;9.260;2023-02-18T06:39:49;10.60;99.90
15357;DHT22;7778;48.792;9.260;2023-02-18T06:42:35;10.70;99.90
15357;DHT22;7778;48.792;9.260;2023-02-18T06:45:22;10.70;99.90
15357;DHT22;7778;48.792;9.260;2023-02-18T06:48:08;10.70;99.90
15357;DHT22;7778;48.792;9.260;2023-02-18T06:50:55;10.70;99.90
15357;DHT22;7778;48.792;9.260;2023-02-18T06:53:41;10.70;99.90
15357;DHT22;7778;48.792;9.260;2023-02-18T06:56:27;10.80;99.90
15357;DHT22;7778;48.792;9.260;2023-02-18T06:59:13;10.90;99.90
15357;DHT22;7778;48.792;9.260;2023-02-18T07:02:00;10.90;99.90
15357;DHT22;7778;48.792;9.260;2023-02-18T07:04:45;11.00;99.90
15357;DHT22;7778;48.792;9.260;2023-02-18T07:07:31;11.00;99.90
15357;DHT22;7778;48.792;9.260;2023-02-18T07:10:17;11.00;99.90
15357;DHT22;7778;48.792;9.260;2023-02-18T07:13:03;11.10;99.90
15357;DHT22;7778;48.792;9.260;2023-02-18T07:15:49;11.10;99.90
15357;DHT22;7778;48.792;9.260;2023-02-18T07:18:36;11.20;99.90
15357;DHT22;7778;48.792;9.260;2023-02-18T07:21:21;11.20;99.90
15357;DHT22;7778;48.792;9.260;2023-02-18T07:24:07;11.20;99.90
15357;DHT22;7778;48.792;9.260;2023-02-18T07:26:53;11.30;99.90
15357;DHT22;7778;48.792;9.260;2023-02-18T07:29:38;11.30;99.90
15357;DHT22;7778;48.792;9.260;2023-02-18T07:32:24;11.20;99.90
15357;DHT22;7778;48.792;9.260;2023-02-18T07:35:12;11.20;99.90
15357;DHT22;7778;48.792;9.260;2023-02-18T07:37:58;11.30;99.90
15357;DHT22;7778;48.792;9.260;2023-02-18T07:40:45;11.30;99.90
15357;DHT22;7778;48.792;9.260;2023-02-18T07:43:31;11.40;99.90
15357;DHT22;7778;48.792;9.260;2023-02-18T07:46:16;11.50;99.90
15357;DHT22;7778;48.792;9.260;2023-02-18T07:49:02;11.50;99.90
15357;DHT22;7778;48.792;9.260;2023-02-18T07:51:49;11.50;99.90
15357;DHT22;7778;48.792;9.260;2023-02-18T07:54:35;11.50;99.90
15357;DHT22;7778;48.792;9.260;2023-02-18T07:57:21;11.60;99.90
15357;DHT22;7778;48.792;9.260;2023-02-18T08:00:08;11.70;99.90
15357;DHT22;7778;48.792;9.260;2023-02-18T08:02:54;11.80;99.90
15357;DHT22;7778;48.792;9.260;2023-02-18T08:05:39;11.90;99.90
15357;DHT22;7778;48.792;9.260;2023-02-18T08:08:28;12.00;99.90
15357;DHT22;7778;48.792;9.260;2023-02-18T08:11:15;12.00;99.90
15357;DHT22;7778;48.792;9.260;2023-02-18T08:14:01;11.90;99.90
15357;DHT22;7778;48.792;9.260;2023-02-18T08:16:46;12.00;99.90
15357;DHT22;7778;48.792;9.260;2023-02-18T08:19:32;11.90;99.90
15357;DHT22;7778;48.792;9.260;2023-02-18T08:22:17;12.00;99.90
15357;DHT22;7778;48.792;9.260;2023-02-18T08:25:05;12.00;99.90
15357;DHT22;7778;48.792;9.260;2023-02-18T08:27:51;12.10;99.90
15357;DHT22;7778;48.792;9.260;2023-02-18T08:30:37;12.10;99.90
15357;DHT22;7778;48.792;9.260;2023-02-18T08:33:23;12.30;99.90
15357;DHT22;7778;48.792;9.260;2023-02-18T08:36:09;12.40;99.90
15357;DHT22;7778;48.792;9.260;2023-02-18T08:38:55;12.50;99.90
15357;DHT22;7778;48.792;9.260;2023-02-18T08:41:42;12.60;99.90
15357;DHT22;7778;48.792;9.260;2023-02-18T08:44:28;12.70;99.90
15357;DHT22;7778;48.792;9.260;2023-02-18T08:47:14;12.80;99.90
15357;DHT22;7778;48.792;9.260;2023-02-18T08:50:00;12.80;99.90
15357;DHT22;7778;48.792;9.260;2023-02-18T08:52:45;12.90;99.90
15357;DHT22;7778;48.792;9.260;2023-02-18T08:55:32;13.00;99.90
15357;DHT22;7778;48.792;9.260;2023-02-18T08:58:19;13.10;99.90
15357;DHT22;7778;48.792;9.260;2023-02-18T09:01:13;13.30;99.90
15357;DHT22;7778;48.792;9.260;2023-02-18T09:03:58;13.30;99.90
15357;DHT22;7778;48.792;9.260;2023-02-18T09:06:44;13.30;99.90
15357;DHT22;7778;48.792;9.260;2023-02-18T09:09:29;13.30;99.90
15357;DHT22;7778;48.792;9.260;2023-02-18T09:12:15;13.40;99.90
15357;DHT22;7778;48.792;9.260;2023-02-18T09:15:03;13.50;99.90
15357;DHT22;7778;48.792;9.260;2023-02-18T09:17:49;13.60;99.90
15357;DHT22;7778;48.792;9.260;2023-02-18T09:20:34;13.70;99.90
15357;DHT22;7778;48.792;9.260;2023-02-18T09:23:20;13.90;99.90
15357;DHT22;7778;48.792;9.260;2023-02-18T09:26:07;14.30;99.90
15357;DHT22;7778;48.792;9.260;2023-02-18T09:28:55;14.90;99.90
15357;DHT22;7778;48.792;9.260;2023-02-18T09:31:43;15.50;99.90
15357;DHT22;7778;48.792;9.260;2023-02-18T09:34:28;15.30;99.90
15357;DHT22;7778;48.792;9.260;2023-02-18T09:37:14;15.00;99.90
15357;DHT22;7778;48.792;9.260;2023-02-18T09:40:00;14.80;99.90
15357;DHT22;7778;48.792;9.260;2023-02-18T09:42:45;14.70;99.90
15357;DHT22;7778;48.792;9.260;2023-02-18T09:45:31;14.40;99.90
15357;DHT22;7778;48.792;9.260;2023-02-18T09:48:19;14.10;99.90
15357;DHT22;7778;48.792;9.260;2023-02-18T09:51:11;14.20;99.90
15357;DHT22;7778;48.792;9.260;2023-02-18T09:53:57;14.30;99.90
15357;DHT22;7778;48.792;9.260;2023-02-18T09:56:44;14.40;99.90
15357;DHT22;7778;48.792;9.260;2023-02-18T09:59:30;14.40;99.90
15357;DHT22;7778;48.792;9.260;2023-02-18T10:02:16;14.50;99.90
15357;DHT22;7778;48.792;9.260;2023-02-18T10:05:05;14.50;99.90
15357;DHT22;7778;48.792;9.260;2023-02-18T10:07:54;14.40;99.90
15357;DHT22;7778;48.792;9.260;2023-02-18T10:10:45;14.50;99.90
15357;DHT22;7778;48.792;9.260;2023-02-18T10:13:33;14.60;99.90
15357;DHT22;7778;48.792;9.260;2023-02-18T10:16:19;14.40;99.90
15357;DHT22;7778;48.792;9.260;2023-02-18T10:19:19;14.40;99.90
15357;DHT22;7778;48.792;9.260;2023-02-18T10:22:11;14.50;99.90
15357;DHT22;7778;48.792;9.260;2023-02-18T10:24:58;14.30;99.90
15357;DHT22;7778;48.792;9.260;2023-02-18T10:27:47;14.30;99.90
15357;DHT22;7778;48.792;9.260;2023-02-18T10:30:38;14.70;99.90
15357;DHT22;7778;48.792;9.260;2023-02-18T10:33:32;15.00;99.90
15357;DHT22;7778;48.792;9.260;2023-02-18T10:36:24;15.20;99.90
15357;DHT22;7778;48.792;9.260;2023-02-18T10:42:51;14.90;99.90
15357;DHT22;7778;48.792;9.260;2023-02-18T10:45:46;14.70;99.90
15357;DHT22;7778;48.792;9.260;2023-02-18T10:49:01;14.70;99.90
15357;DHT22;7778;48.792;9.260;2023-02-18T10:51:53;14.50;99.90
15357;DHT22;7778;48.792;9.260;2023-02-18T10:54:49;14.60;99.90
15357;DHT22;7778;48.792;9.260;2023-02-18T10:57:45;14.60;99.90
15357;DHT22;7778;48.792;9.260;2023-02-18T11:00:35;14.60;99.90
15357;DHT22;7778;48.792;9.260;2023-02-18T11:03:26;14.60;99.90
15357;DHT22;7778;48.792;9.260;2023-02-18T11:06:26;14.70;99.90
15357;DHT22;7778;48.792;9.260;2023-02-18T11:09:32;14.80;99.90
15357;DHT22;7778;48.792;9.260;2023-02-18T11:12:24;14.90;99.90
15357;DHT22;7778;48.792;9.260;2023-02-18T11:15:21;14.90;99.90
15357;DHT22;7778;48.792;9.260;2023-02-18T11:18:14;14.80;99.90
15357;DHT22;7778;48.792;9.260;2023-02-18T11:21:29;14.90;99.90
15357;DHT22;7778;48.792;9.260;2023-02-18T11:24:19;14.80;99.90
15357;DHT22;7778;48.792;9.260;2023-02-18T11:27:08;15.00;99.90
15357;DHT22;7778;48.792;9.260;2023-02-18T11:29:59;14.80;99.90
15357;DHT22;7778;48.792;9.260;2023-02-18T11:32:50;14.80;99.90
15357;DHT22;7778;48.792;9.260;2023-02-18T11:35:37;14.90;99.90
15357;DHT22;7778;48.792;9.260;2023-02-18T11:38:24;15.00;99.90
15357;DHT22;7778;48.792;9.260;2023-02-18T11:41:15;15.10;99.90
15357;DHT22;7778;48.792;9.260;2023-02-18T11:44:05;15.00;99.90
15357;DHT22;7778;48.792;9.260;2023-02-18T11:47:00;14.70;99.90
15357;DHT22;7778;48.792;9.260;2023-02-18T11:50:03;14.70;99.90
15357;DHT22;7778;48.792;9.260;2023-02-18T11:52:59;14.50;99.90
15357;DHT22;7778;48.792;9.260;2023-02-18T11:55:53;14.50;99.90
15357;DHT22;7778;48.792;9.260;2023-02-18T11:58:42;14.50;99.90
15357;DHT22;7778;48.792;9.260;2023-02-18T12:01:40;14.50;99.90
15357;DHT22;7778;48.792;9.260;2023-02-18T12:04:32;14.60;99.90
15357;DHT22;7778;48.792;9.260;2023-02-18T12:07:26;14.60;99.90
15357;DHT22;7778;48.792;9.260;2023-02-18T12:10:22;14.70;99.90
15357;DHT22;7778;48.792;9.260;2023-02-18T12:13:21;14.70;99.90
15357;DHT22;7778;48.792;9.260;2023-02-18T12:16:15;14.80;99.90
15357;DHT22;7778;48.792;9.260;2023-02-18T12:19:36;15.10;99.90
15357;DHT22;7778;48.792;9.260;2023-02-18T12:22:40;14.90;99.90
15357;DHT22;7778;48.792;9.260;2023-02-18T12:25:34;14.90;99.90
15357;DHT22;7778;48.792;9.260;2023-02-18T12:28:34;14.70;99.90
15357;DHT22;7778;48.792;9.260;2023-02-18T12:31:41;14.50;99.90
15357;DHT22;7778;48.792;9.260;2023-02-18T12:34:41;14.60;99.90
15357;DHT22;7778;48.792;9.260;2023-02-18T12:37:55;14.50;99.90
15357;DHT22;7778;48.792;9.260;2023-02-18T12:41:03;14.50;99.90
15357;DHT22;7778;48.792;9.260;2023-02-18T12:44:11;14.60;99.90
15357;DHT22;7778;48.792;9.260;2023-02-18T12:50:27;14.50;99.90
15357;DHT22;7778;48.792;9.260;2023-02-18T12:53:30;14.60;99.90
15357;DHT22;7778;48.792;9.260;2023-02-18T12:56:44;14.70;99.90
15357;DHT22;7778;48.792;9.260;2023-02-18T12:59:52;14.70;99.90
15357;DHT22;7778;48.792;9.260;2023-02-18T13:06:16;14.80;99.90
15357;DHT22;7778;48.792;9.260;2023-02-18T13:09:20;14.80;99.90
15357;DHT22;7778;48.792;9.260;2023-02-18T13:12:14;14.80;99.90
15357;DHT22;7778;48.792;9.260;2023-02-18T13:15:05;14.80;99.90
15357;DHT22;7778;48.792;9.260;2023-02-18T13:18:00;14.80;99.90
15357;DHT22;7778;48.792;9.260;2023-02-18T13:20:50;14.80;99.90
15357;DHT22;7778;48.792;9.260;2023-02-18T13:23:42;14.80;99.90
15357;DHT22;7778;48.792;9.260;2023-02-18T13:26:34;14.60;99.90
15357;DHT22;7778;48.792;9.260;2023-02-18T13:29:25;14.60;99.90
15357;DHT22;7778;48.792;9.260;2023-02-18T13:32:19;14.50;99.90
15357;DHT22;7778;48.792;9.260;2023-02-18T13:35:19;14.50;99.90
15357;DHT22;7778;48.792;9.260;2023-02-18T13:38:25;14.60;99.90
15357;DHT22;7778;48.792;9.260;2023-02-18T13:41:16;14.60;99.90
15357;DHT22;7778;48.792;9.260;2023-02-18T13:44:08;14.50;99.90
15357;DHT22;7778;48.792;9.260;2023-02-18T13:47:00;14.40;99.90
15357;DHT22;7778;48.792;9.260;2023-02-18T13:49:46;14.60;99.90
15357;DHT22;7778;48.792;9.260;2023-02-18T13:52:32;14.50;99.90
15357;DHT22;7778;48.792;9.260;2023-02-18T13:55:21;14.50;99.90
15357;DHT22;7778;48.792;9.260;2023-02-18T13:58:14;14.50;99.90
15357;DHT22;7778;48.792;9.260;2023-02-18T14:01:29;14.60;99.90
15357;DHT22;7778;48.792;9.260;2023-02-18T14:04:49;14.50;99.90
15357;DHT22;7778;48.792;9.260;2023-02-18T14:07:43;14.80;99.90
15357;DHT22;7778;48.792;9.260;2023-02-18T14:10:32;14.70;99.90
15357;DHT22;7778;48.792;9.260;2023-02-18T14:13:23;14.90;99.90
15357;DHT22;7778;48.792;9.260;2023-02-18T14:16:10;14.90;99.90
15357;DHT22;7778;48.792;9.260;2023-02-18T14:18:59;15.00;99.90
15357;DHT22;7778;48.792;9.260;2023-02-18T14:21:45;15.10;99.90
15357;DHT22;7778;48.792;9.260;2023-02-18T14:24:43;15.20;99.90
15357;DHT22;7778;48.792;9.260;2023-02-18T14:27:31;15.20;99.90
15357;DHT22;7778;48.792;9.260;2023-02-18T14:30:23;15.10;99.90
15357;DHT22;7778;48.792;9.260;2023-02-18T14:33:14;15.00;99.90
15357;DHT22;7778;48.792;9.260;2023-02-18T14:36:08;14.90;99.90
15357;DHT22;7778;48.792;9.260;2023-02-18T14:39:04;15.00;99.90
15357;DHT22;7778;48.792;9.260;2023-02-18T14:41:59;15.20;99.90
15357;DHT22;7778;48.792;9.260;2023-02-18T14:44:57;15.20;99.90
15357;DHT22;7778;48.792;9.260;2023-02-18T14:51:19;15.30;99.90
15357;DHT22;7778;48.792;9.260;2023-02-18T14:54:11;15.50;99.90
15357;DHT22;7778;48.792;9.260;2023-02-18T14:57:00;15.70;99.90
15357;DHT22;7778;48.792;9.260;2023-02-18T14:59:48;15.50;99.90
15357;DHT22;7778;48.792;9.260;2023-02-18T15:02:41;15.30;99.90
15357;DHT22;7778;48.792;9.260;2023-02-18T15:05:29;15.10;99.90
15357;DHT22;7778;48.792;9.260;2023-02-18T15:08:19;15.00;99.90
15357;DHT22;7778;48.792;9.260;2023-02-18T15:11:06;14.90;99.90
15357;DHT22;7778;48.792;9.260;2023-02-18T15:13:52;15.00;99.90
15357;DHT22;7778;48.792;9.260;2023-02-18T15:16:38;15.00;99.90
15357;DHT22;7778;48.792;9.260;2023-02-18T15:19:26;15.00;99.90
15357;DHT22;7778;48.792;9.260;2023-02-18T15:22:15;14.90;99.90
15357;DHT22;7778;48.792;9.260;2023-02-18T15:25:04;14.80;99.90
15357;DHT22;7778;48.792;9.260;2023-02-18T15:27:51;14.80;99.90
15357;DHT22;7778;48.792;9.260;2023-02-18T15:30:38;14.80;99.90
15357;DHT22;7778;48.792;9.260;2023-02-18T15:33:24;14.70;99.90
15357;DHT22;7778;48.792;9.260;2023-02-18T15:36:13;14.70;99.90
15357;DHT22;7778;48.792;9.260;2023-02-18T15:38:58;14.60;99.90
15357;DHT22;7778;48.792;9.260;2023-02-18T15:41:46;14.50;99.90
15357;DHT22;7778;48.792;9.260;2023-02-18T15:44:36;14.60;99.90
15357;DHT22;7778;48.792;9.260;2023-02-18T15:47:22;14.30;99.90
15357;DHT22;7778;48.792;9.260;2023-02-18T15:50:16;14.20;99.90
15357;DHT22;7778;48.792;9.260;2023-02-18T15:53:05;14.10;99.90
15357;DHT22;7778;48.792;9.260;2023-02-18T15:55:53;14.10;99.90
15357;DHT22;7778;48.792;9.260;2023-02-18T15:58:41;14.00;99.90
15357;DHT22;7778;48.792;9.260;2023-02-18T16:01:28;14.10;99.90
15357;DHT22;7778;48.792;9.260;2023-02-18T16:04:14;14.10;99.90
15357;DHT22;7778;48.792;9.260;2023-02-18T16:07:03;13.90;99.90
15357;DHT22;7778;48.792;9.260;2023-02-18T16:10:14;13.90;99.90
15357;DHT22;7778;48.792;9.260;2023-02-18T16:15:48;13.70;99.90
15357;DHT22;7778;48.792;9.260;2023-02-18T16:18:37;13.70;99.90
15357;DHT22;7778;48.792;9.260;2023-02-18T16:21:28;13.70;99.90
15357;DHT22;7778;48.792;9.260;2023-02-18T16:24:23;13.60;99.90
15357;DHT22;7778;48.792;9.260;2023-02-18T16:27:14;13.60;99.90
15357;DHT22;7778;48.792;9.260;2023-02-18T16:30:06;13.60;99.90
15357;DHT22;7778;48.792;9.260;2023-02-18T16:33:01;13.50;99.90
15357;DHT22;7778;48.792;9.260;2023-02-18T16:35:47;13.50;99.90
15357;DHT22;7778;48.792;9.260;2023-02-18T16:38:32;13.40;99.90
15357;DHT22;7778;48.792;9.260;2023-02-18T16:41:18;13.50;99.90
15357;DHT22;7778;48.792;9.260;2023-02-18T16:44:12;13.50;99.90
15357;DHT22;7778;48.792;9.260;2023-02-18T16:46:58;13.50;99.90
15357;DHT22;7778;48.792;9.260;2023-02-18T16:49:46;13.50;99.90
15357;DHT22;7778;48.792;9.260;2023-02-18T16:52:34;13.40;99.90
15357;DHT22;7778;48.792;9.260;2023-02-18T16:55:22;13.30;99.90
15357;DHT22;7778;48.792;9.260;2023-02-18T16:58:08;13.30;99.90
15357;DHT22;7778;48.792;9.260;2023-02-18T17:00:54;13.30;99.90
15357;DHT22;7778;48.792;9.260;2023-02-18T17:03:40;13.20;99.90
15357;DHT22;7778;48.792;9.260;2023-02-18T17:06:27;13.30;99.90
15357;DHT22;7778;48.792;9.260;2023-02-18T17:09:15;13.20;99.90
15357;DHT22;7778;48.792;9.260;2023-02-18T17:12:03;13.20;99.90
15357;DHT22;7778;48.792;9.260;2023-02-18T17:14:49;13.20;99.90
15357;DHT22;7778;48.792;9.260;2023-02-18T17:17:35;13.20;99.90
15357;DHT22;7778;48.792;9.260;2023-02-18T17:20:20;13.20;99.90
15357;DHT22;7778;48.792;9.260;2023-02-18T17:23:09;13.20;99.90
15357;DHT22;7778;48.792;9.260;2023-02-18T17:25:58;13.20;99.90
15357;DHT22;7778;48.792;9.260;2023-02-18T17:28:44;13.20;99.90
15357;DHT22;7778;48.792;9.260;2023-02-18T17:31:32;13.10;99.90
15357;DHT22;7778;48.792;9.260;2023-02-18T17:34:24;13.10;99.90
15357;DHT22;7778;48.792;9.260;2023-02-18T17:37:11;13.20;99.90
15357;DHT22;7778;48.792;9.260;2023-02-18T17:39:58;13.20;99.90
15357;DHT22;7778;48.792;9.260;2023-02-18T17:42:44;13.10;99.90
15357;DHT22;7778;48.792;9.260;2023-02-18T17:45:33;13.20;99.90
15357;DHT22;7778;48.792;9.260;2023-02-18T17:48:20;13.10;99.90
15357;DHT22;7778;48.792;9.260;2023-02-18T17:51:06;13.10;99.90
15357;DHT22;7778;48.792;9.260;2023-02-18T17:54:10;13.00;99.90
15357;DHT22;7778;48.792;9.260;2023-02-18T17:56:58;12.90;99.90
15357;DHT22;7778;48.792;9.260;2023-02-18T17:59:44;12.90;99.90
15357;DHT22;7778;48.792;9.260;2023-02-18T18:02:30;13.00;99.90
15357;DHT22;7778;48.792;9.260;2023-02-18T18:05:18;13.00;99.90
15357;DHT22;7778;48.792;9.260;2023-02-18T18:08:06;13.00;99.90
15357;DHT22;7778;48.792;9.260;2023-02-18T18:10:54;12.90;99.90
15357;DHT22;7778;48.792;9.260;2023-02-18T18:13:44;12.90;99.90
15357;DHT22;7778;48.792;9.260;2023-02-18T18:16:30;13.00;99.90
15357;DHT22;7778;48.792;9.260;2023-02-18T18:19:15;13.00;99.90
15357;DHT22;7778;48.792;9.260;2023-02-18T18:22:01;13.00;99.90
15357;DHT22;7778;48.792;9.260;2023-02-18T18:24:47;13.00;99.90
15357;DHT22;7778;48.792;9.260;2023-02-18T18:27:35;13.10;99.90
15357;DHT22;7778;48.792;9.260;2023-02-18T18:30:24;12.90;99.90
15357;DHT22;7778;48.792;9.260;2023-02-18T18:33:14;12.90;99.90